sensor_id;sensor_type;location;lat;lon;timestamp;temperature;humidity
63960;DHT22;50136;51.374;0.096;2022-10-16T00:05:23;12.50;99.90
63960;DHT22;50136;51.374;0.096;2022-10-16T00:15:26;12.40;99.90
63960;DHT22;50136;51.374;0.096;2022-10-16T00:25:28;12.60;99.90
63960;DHT22;50136;51.374;0.096;2022-10-16T00:35:32;12.90;99.90
63960;DHT22;50136;51.374;0.096;2022-10-16T00:45:34;12.80;99.90
63960;DHT22;50136;51.374;0.096;2022-10-16T00:55:37;12.60;99.90
63960;DHT22;50136;51.374;0.096;2022-10-16T01:05:48;12.50;99.90
63960;DHT22;50136;51.374;0.096;2022-10-16T01:15:54;12.30;99.90
63960;DHT22;50136;51.374;0.096;2022-10-16T01:26:12;12.10;99.90
63960;DHT22;50136;51.374;0.096;2022-10-16T01:36:19;12.00;99.90
63960;DHT22;50136;51.374;0.096;2022-10-16T01:46:23;12.10;99.90
63960;DHT22;50136;51.374;0.096;2022-10-16T01:56:27;12.00;99.90
63960;DHT22;50136;51.374;0.096;2022-10-16T02:06:30;12.00;99.90
63960;DHT22;50136;51.374;0.096;2022-10-16T02:16:39;12.30;99.90
63960;DHT22;50136;51.374;0.096;2022-10-16T02:26:45;12.50;99.90
63960;DHT22;50136;51.374;0.096;2022-10-16T02:36:52;12.60;99.90
63960;DHT22;50136;51.374;0.096;2022-10-16T02:46:54;12.50;99.90
63960;DHT22;50136;51.374;0.096;2022-10-16T02:56:58;12.40;99.90
63960;DHT22;50136;51.374;0.096;2022-10-16T03:07:00;12.20;99.90
63960;DHT22;50136;51.374;0.096;2022-10-16T03:17:03;12.10;99.90
63960;DHT22;50136;51.374;0.096;2022-10-16T03:27:05;12.00;99.90
63960;DHT22;50136;51.374;0.096;2022-10-16T03:37:08;12.00;99.90
63960;DHT22;50136;51.374;0.096;2022-10-16T03:47:10;11.90;99.90
63960;DHT22;50136;51.374;0.096;2022-10-16T03:57:13;11.80;99.90
63960;DHT22;50136;51.374;0.096;2022-10-16T04:07:15;11.80;99.90
63960;DHT22;50136;51.374;0.096;2022-10-16T04:17:19;11.70;99.90
63960;DHT22;50136;51.374;0.096;2022-10-16T04:27:21;11.60;99.90
63960;DHT22;50136;51.374;0.096;2022-10-16T04:37:25;11.50;99.90
63960;DHT22;50136;51.374;0.096;2022-10-16T04:47:28;11.40;99.90
63960;DHT22;50136;51.374;0.096;2022-10-16T04:57:31;11.30;99.90
63960;DHT22;50136;51.374;0.096;2022-10-16T05:07:33;11.30;99.90
63960;DHT22;50136;51.374;0.096;2022-10-16T05:17:37;11.20;99.90
63960;DHT22;50136;51.374;0.096;2022-10-16T05:27:47;11.20;99.90
63960;DHT22;50136;51.374;0.096;2022-10-16T05:37:50;11.20;99.90
63960;DHT22;50136;51.374;0.096;2022-10-16T05:47:52;11.30;99.90
63960;DHT22;50136;51.374;0.096;2022-10-16T05:57:56;11.20;99.90
63960;DHT22;50136;51.374;0.096;2022-10-16T06:07:57;11.10;99.90
63960;DHT22;50136;51.374;0.096;2022-10-16T06:18:01;11.00;99.90
63960;DHT22;50136;51.374;0.096;2022-10-16T06:28:03;10.90;99.90
63960;DHT22;50136;51.374;0.096;2022-10-16T06:38:06;10.90;99.90
63960;DHT22;50136;51.374;0.096;2022-10-16T06:48:08;10.80;99.90
63960;DHT22;50136;51.374;0.096;2022-10-16T06:58:11;10.80;99.90
63960;DHT22;50136;51.374;0.096;2022-10-16T07:08:13;10.80;99.90
63960;DHT22;50136;51.374;0.096;2022-10-16T07:18:17;10.90;99.90
63960;DHT22;50136;51.374;0.096;2022-10-16T07:28:19;11.00;99.90
63960;DHT22;50136;51.374;0.096;2022-10-16T07:38:22;11.20;99.90
63960;DHT22;50136;51.374;0.096;2022-10-16T07:48:27;11.30;99.90
63960;DHT22;50136;51.374;0.096;2022-10-16T08:09:34;11.90;99.90
63960;DHT22;50136;51.374;0.096;2022-10-16T08:19:36;12.30;99.90
63960;DHT22;50136;51.374;0.096;2022-10-16T08:29:39;13.10;99.90
63960;DHT22;50136;51.374;0.096;2022-10-16T08:39:41;14.00;99.90
63960;DHT22;50136;51.374;0.096;2022-10-16T08:49:55;14.40;99.90
63960;DHT22;50136;51.374;0.096;2022-10-16T09:00:00;14.40;99.90
63960;DHT22;50136;51.374;0.096;2022-10-16T09:10:19;15.90;99.90
63960;DHT22;50136;51.374;0.096;2022-10-16T09:20:41;17.50;99.90
63960;DHT22;50136;51.374;0.096;2022-10-16T09:30:46;18.80;99.90
63960;DHT22;50136;51.374;0.096;2022-10-16T09:40:49;19.00;99.90
63960;DHT22;50136;51.374;0.096;2022-10-16T09:51:06;18.90;99.90
63960;DHT22;50136;51.374;0.096;2022-10-16T10:01:19;20.60;98.30
63960;DHT22;50136;51.374;0.096;2022-10-16T10:11:41;20.90;99.90
63960;DHT22;50136;51.374;0.096;2022-10-16T10:21:43;20.50;97.40
63960;DHT22;50136;51.374;0.096;2022-10-16T10:31:51;21.30;97.10
63960;DHT22;50136;51.374;0.096;2022-10-16T10:42:09;21.30;96.60
63960;DHT22;50136;51.374;0.096;2022-10-16T10:52:39;20.40;96.50
63960;DHT22;50136;51.374;0.096;2022-10-16T11:13:51;18.60;97.40
63960;DHT22;50136;51.374;0.096;2022-10-16T11:35:28;18.00;98.90
63960;DHT22;50136;51.374;0.096;2022-10-16T11:55:51;18.00;99.90
63960;DHT22;50136;51.374;0.096;2022-10-16T12:27:25;17.80;99.90
63960;DHT22;50136;51.374;0.096;2022-10-16T12:37:32;17.50;99.90
63960;DHT22;50136;51.374;0.096;2022-10-16T12:47:48;17.20;99.90
63960;DHT22;50136;51.374;0.096;2022-10-16T13:19:02;16.80;99.90
63960;DHT22;50136;51.374;0.096;2022-10-16T13:40:49;16.80;99.90
63960;DHT22;50136;51.374;0.096;2022-10-16T14:02:22;16.70;99.90
63960;DHT22;50136;51.374;0.096;2022-10-16T14:22:45;16.60;99.90
63960;DHT22;50136;51.374;0.096;2022-10-16T14:32:55;16.70;99.90
63960;DHT22;50136;51.374;0.096;2022-10-16T14:42:59;16.40;99.90
63960;DHT22;50136;51.374;0.096;2022-10-16T15:14:32;16.30;99.90
63960;DHT22;50136;51.374;0.096;2022-10-16T15:24:34;16.20;99.90
63960;DHT22;50136;51.374;0.096;2022-10-16T15:34:38;16.00;99.90
63960;DHT22;50136;51.374;0.096;2022-10-16T15:44:39;15.90;99.90
63960;DHT22;50136;51.374;0.096;2022-10-16T15:54:43;15.80;99.90
63960;DHT22;50136;51.374;0.096;2022-10-16T16:04:45;15.70;99.90
63960;DHT22;50136;51.374;0.096;2022-10-16T16:14:49;15.60;99.90
63960;DHT22;50136;51.374;0.096;2022-10-16T16:45:27;15.20;99.90
63960;DHT22;50136;51.374;0.096;2022-10-16T16:55:29;15.00;99.90
63960;DHT22;50136;51.374;0.096;2022-10-16T17:16:40;14.80;99.90
63960;DHT22;50136;51.374;0.096;2022-10-16T17:26:42;14.80;99.90
63960;DHT22;50136;51.374;0.096;2022-10-16T17:36:48;14.80;99.90
63960;DHT22;50136;51.374;0.096;2022-10-16T17:57:08;14.60;99.90
63960;DHT22;50136;51.374;0.096;2022-10-16T18:07:10;14.60;99.90
63960;DHT22;50136;51.374;0.096;2022-10-16T18:17:14;14.60;99.90
63960;DHT22;50136;51.374;0.096;2022-10-16T18:27:16;14.40;99.90
63960;DHT22;50136;51.374;0.096;2022-10-16T18:37:20;14.40;99.90
63960;DHT22;50136;51.374;0.096;2022-10-16T18:47:22;14.30;99.90
63960;DHT22;50136;51.374;0.096;2022-10-16T18:57:27;14.30;99.90
63960;DHT22;50136;51.374;0.096;2022-10-16T19:07:30;14.40;99.90
63960;DHT22;50136;51.374;0.096;2022-10-16T19:17:34;14.40;99.90
63960;DHT22;50136;51.374;0.096;2022-10-16T19:27:36;14.50;99.90
63960;DHT22;50136;51.374;0.096;2022-10-16T19:37:39;14.50;99.90
63960;DHT22;50136;51.374;0.096;2022-10-16T19:57:59;14.50;99.90
63960;DHT22;50136;51.374;0.096;2022-10-16T20:08:01;14.60;99.90
63960;DHT22;50136;51.374;0.096;2022-10-16T20:18:04;14.70;99.90
63960;DHT22;50136;51.374;0.096;2022-10-16T20:28:08;14.70;99.90
63960;DHT22;50136;51.374;0.096;2022-10-16T20:38:13;14.80;99.90
63960;DHT22;50136;51.374;0.096;2022-10-16T20:48:16;14.90;99.90
63960;DHT22;50136;51.374;0.096;2022-10-16T20:58:19;15.00;99.90
63960;DHT22;50136;51.374;0.096;2022-10-16T21:08:21;15.00;99.90
63960;DHT22;50136;51.374;0.096;2022-10-16T21:18:26;15.00;99.90
63960;DHT22;50136;51.374;0.096;2022-10-16T21:28:29;15.20;99.90
63960;DHT22;50136;51.374;0.096;2022-10-16T21:38:33;15.30;99.90
63960;DHT22;50136;51.374;0.096;2022-10-16T21:48:35;15.30;99.90
63960;DHT22;50136;51.374;0.096;2022-10-16T21:58:39;15.40;99.90
63960;DHT22;50136;51.374;0.096;2022-10-16T22:08:42;15.40;99.90
63960;DHT22;50136;51.374;0.096;2022-10-16T22:18:45;15.50;99.90
63960;DHT22;50136;51.374;0.096;2022-10-16T22:28:47;15.70;99.90
63960;DHT22;50136;51.374;0.096;2022-10-16T22:38:51;15.70;99.90
63960;DHT22;50136;51.374;0.096;2022-10-16T22:48:53;15.80;99.90
63960;DHT22;50136;51.374;0.096;2022-10-16T22:58:58;15.90;99.90
63960;DHT22;50136;51.374;0.096;2022-10-16T23:09:00;16.00;99.90
63960;DHT22;50136;51.374;0.096;2022-10-16T23:19:04;16.10;99.90
63960;DHT22;50136;51.374;0.096;2022-10-16T23:29:06;16.30;99.90
63960;DHT22;50136;51.374;0.096;2022-10-16T23:39:09;16.40;99.90
63960;DHT22;50136;51.374;0.096;2022-10-16T23:49:12;16.50;99.90
63960;DHT22;50136;51.374;0.096;2022-10-16T23:59:15;16.60;99.90
